Time;durP1;ratioP1;P1;durP2;ratioP2;P2;SDS_P1;SDS_P2;PMS_P1;PMS_P2;Temp;Humidity;BMP_temperature;BMP_pressure;BME280_temperature;BME280_humidity;BME280_pressure;Samples;Min_cycle;Max_cycle;Signal;HPM_P1;HPM_P2
2022/12/15 00:40:04;;;;;;;13.15;7.05;;;;;;;-2.50;69.13;99936.13;4922811;29;20032;-89
2022/12/15 00:42:30;;;;;;;14.07;6.82;;;;;;;-2.96;69.38;99871.03;4888156;29;20067;-90
2022/12/15 00:44:57;;;;;;;13.40;7.20;;;;;;;-2.72;69.11;99895.44;4890022;29;20041;-93
2022/12/15 00:47:23;;;;;;;16.00;7.03;;;;;;;-2.50;68.75;99926.25;4891504;29;20080;-92
2022/12/15 01:20:17;;;;;;;20.48;7.30;;;;;;;-2.71;68.77;99905.94;4905898;29;20114;-90
2022/12/15 01:22:54;;;;;;;12.40;6.95;;;;;;;-2.60;69.19;99942.75;4903557;29;20051;-91
2022/12/15 01:25:23;;;;;;;13.50;6.50;;;;;;;-2.56;69.22;99953.84;4900718;29;20052;-92
2022/12/15 01:27:49;;;;;;;12.90;6.43;;;;;;;-2.81;69.32;99894.03;4882927;29;20517;-92
2022/12/15 01:30:19;;;;;;;13.10;7.18;;;;;;;-2.50;69.31;99958.34;4885922;29;20043;-91
2022/12/15 01:32:45;;;;;;;12.02;6.78;;;;;;;-2.55;69.31;99917.19;4909490;29;20047;-91
2022/12/15 01:35:12;;;;;;;16.10;7.40;;;;;;;-2.94;68.33;99855.59;4893813;29;20045;-91
2022/12/15 01:37:38;;;;;;;18.25;7.05;;;;;;;-2.67;68.22;99874.22;4887469;29;20044;-92
2022/12/15 01:42:51;;;;;;;;;;;;;;;-2.46;69.06;99962.25;4897313;29;20056;-91
2022/12/15 01:45:24;;;;;;;13.07;7.18;;;;;;;-2.52;69.70;99967.63;4893432;29;19923;-92
2022/12/15 01:47:52;;;;;;;14.48;6.72;;;;;;;-2.87;69.49;99927.81;4879005;29;20060;-91
2022/12/15 01:50:19;;;;;;;13.60;7.65;;;;;;;-2.98;69.89;99902.53;4878594;29;20073;-91
2022/12/15 01:52:46;;;;;;;12.60;6.95;;;;;;;-2.79;69.63;99935.59;4892104;29;20044;-91
2022/12/15 01:55:14;;;;;;;13.63;7.22;;;;;;;-2.91;69.55;99913.22;4885808;29;20055;-92
2022/12/15 01:57:42;;;;;;;15.88;7.43;;;;;;;-2.24;69.05;99994.09;4879456;29;20115;-91
2022/12/15 02:00:08;;;;;;;15.95;8.30;;;;;;;-2.53;68.45;99949.94;4871048;29;20041;-91
2022/12/15 02:02:36;;;;;;;14.98;7.05;;;;;;;-2.73;68.49;99928.59;4898998;29;20068;-90
2022/12/15 02:05:03;;;;;;;17.08;7.70;;;;;;;-2.23;68.32;99980.50;4869476;29;20414;-91
2022/12/15 02:07:30;;;;;;;16.13;7.65;;;;;;;-2.71;67.72;99892.56;4875674;29;20565;-90
2022/12/15 02:09:59;;;;;;;13.50;6.90;;;;;;;-2.58;66.96;99922.97;4879394;29;20513;-91
2022/12/15 02:12:26;;;;;;;16.08;7.65;;;;;;;-2.34;67.61;99988.38;4886062;29;20052;-91
2022/12/15 02:15:10;;;;;;;15.20;7.23;;;;;;;-2.41;67.07;99991.09;4884088;29;20047;-90
2022/12/15 02:17:45;;;;;;;13.82;7.18;;;;;;;-2.62;67.65;99995.69;4894860;29;20433;-92
2022/12/15 02:20:40;;;;;;;18.17;8.07;;;;;;;-3.36;68.06;99895.19;4883278;29;20522;-92
2022/12/15 02:23:44;;;;;;;14.07;7.68;;;;;;;-2.91;68.36;100001.50;4867794;29;20080;-92
2022/12/15 02:26:36;;;;;;;13.30;7.20;;;;;;;-3.70;68.85;99887.44;4895391;29;20056;-91
2022/12/15 02:29:24;;;;;;;14.00;7.50;;;;;;;-3.10;69.18;100012.00;4869858;29;20064;-91
2022/12/15 02:31:56;;;;;;;14.98;8.32;;;;;;;-3.08;69.05;100009.94;4869602;29;20076;-90
2022/12/15 02:34:36;;;;;;;15.30;7.65;;;;;;;-2.94;69.13;100007.25;4887933;29;20059;-92
2022/12/15 02:37:21;;;;;;;18.05;8.65;;;;;;;-3.69;68.84;99889.88;4901103;29;20037;-91
2022/12/15 02:39:47;;;;;;;17.33;7.95;;;;;;;-3.29;68.50;99921.91;4877004;29;20044;-90
2022/12/15 02:42:13;;;;;;;16.37;8.20;;;;;;;-3.31;67.94;99926.66;4875473;29;20108;-92
2022/12/15 02:45:00;;;;;;;18.45;8.95;;;;;;;-3.52;68.60;99926.88;4879853;29;20039;-92
2022/12/15 02:48:12;;;;;;;20.83;9.00;;;;;;;-3.13;68.49;100006.25;4882730;29;20055;-90
2022/12/15 02:50:44;;;;;;;17.25;8.57;;;;;;;-3.18;68.33;100001.53;4862013;29;20052;-90
2022/12/15 02:53:19;;;;;;;17.85;9.10;;;;;;;-3.33;68.82;99995.56;4877410;29;20085;-90
2022/12/15 02:56:20;;;;;;;18.33;8.75;;;;;;;-3.26;68.95;100001.72;4873177;29;20151;-92
2022/12/15 02:59:09;;;;;;;18.00;8.70;;;;;;;-4.05;68.75;99891.09;4868307;29;20040;-90
2022/12/15 03:01:43;;;;;;;18.48;9.05;;;;;;;-3.52;68.50;99974.97;4890817;29;20045;-91
2022/12/15 03:04:11;;;;;;;16.98;8.45;;;;;;;-3.94;68.23;99907.53;4880339;29;20095;-91
2022/12/15 03:06:38;;;;;;;20.52;9.13;;;;;;;-3.90;68.02;99916.81;4878479;29;20104;-89
2022/12/15 03:09:04;;;;;;;18.00;8.57;;;;;;;-3.63;67.83;99947.03;4890736;29;20040;-90
2022/12/15 03:11:30;;;;;;;23.83;9.10;;;;;;;-3.58;68.64;99990.78;4904647;29;20048;-91
2022/12/15 03:13:57;;;;;;;20.23;9.15;;;;;;;-3.90;68.52;99922.13;4874253;29;20167;-91
2022/12/15 03:16:23;;;;;;;16.93;8.67;;;;;;;-3.40;68.40;100016.94;4874877;29;20047;-91
2022/12/15 03:18:51;;;;;;;19.48;9.20;;;;;;;-3.72;69.09;99974.97;4875435;29;20140;-91
2022/12/15 03:21:17;;;;;;;25.10;10.40;;;;;;;-3.63;68.90;99992.44;4889746;29;20047;-91
2022/12/15 03:23:43;;;;;;;20.17;9.27;;;;;;;-3.83;69.51;99984.41;4903751;29;20064;-90
2022/12/15 03:26:10;;;;;;;18.13;8.98;;;;;;;-3.85;70.22;100000.63;4910613;29;20056;-91
2022/12/15 03:28:36;;;;;;;17.83;8.73;;;;;;;-4.29;70.92;99945.06;4890704;29;20036;-91
2022/12/15 03:31:04;;;;;;;17.80;8.50;;;;;;;-4.27;71.06;99948.34;4895378;29;20049;-91
2022/12/15 03:33:33;;;;;;;16.00;7.72;;;;;;;-4.06;71.36;99998.94;4876471;29;20040;-89
2022/12/15 03:36:00;;;;;;;19.65;9.10;;;;;;;-3.90;70.98;99988.91;4906928;29;20040;-92
2022/12/15 03:38:26;;;;;;;21.77;9.18;;;;;;;-3.93;70.65;99984.78;4914393;29;20044;-91
2022/12/15 03:40:54;;;;;;;20.15;9.82;;;;;;;-4.17;70.03;99922.09;4889792;29;20518;-90
2022/12/15 03:43:21;;;;;;;19.77;10.52;;;;;;;-3.49;69.52;100017.34;4925182;29;20126;-92
2022/12/15 03:45:47;;;;;;;23.40;10.75;;;;;;;-3.64;69.19;99972.94;4908460;29;20048;-90
2022/12/15 03:48:13;;;;;;;23.27;10.18;;;;;;;-3.18;69.35;100044.31;4891881;29;20498;-92
2022/12/15 03:50:39;;;;;;;23.48;10.27;;;;;;;-3.70;69.03;99938.19;4901964;29;20060;-90
2022/12/15 03:53:06;;;;;;;22.90;10.45;;;;;;;-3.53;68.65;99968.00;4881357;29;20041;-92
2022/12/15 03:55:57;;;;;;;22.67;10.63;;;;;;;-2.90;68.93;100054.78;4885312;29;20108;-96
2022/12/15 03:58:23;;;;;;;19.10;10.23;;;;;;;-2.80;68.98;100057.03;4862150;29;20041;-93
2022/12/15 04:00:49;;;;;;;25.77;10.70;;;;;;;-3.14;68.21;99983.22;4875413;29;20048;-92
2022/12/15 04:03:17;;;;;;;19.37;10.00;;;;;;;-3.26;67.27;99928.72;4906624;29;20044;-92
2022/12/15 04:05:44;;;;;;;21.70;10.02;;;;;;;-2.66;67.10;100028.41;4881677;29;20048;-91
2022/12/15 04:08:11;;;;;;;19.95;9.57;;;;;;;-3.18;66.63;99936.50;4893725;29;20051;-93
2022/12/15 04:10:37;;;;;;;;;;;;;;;-2.57;67.27;100058.47;4891163;29;20433;-92
2022/12/15 04:13:09;;;;;;;18.23;8.02;;;;;;;-2.66;67.50;100050.63;4905133;29;20021;-92
2022/12/15 04:15:37;;;;;;;24.02;9.77;;;;;;;-2.88;67.70;100027.81;4884262;29;20051;-95
2022/12/15 04:18:06;;;;;;;19.02;9.35;;;;;;;-3.03;67.93;99984.44;4884813;29;20036;-92
2022/12/15 04:20:33;;;;;;;18.48;9.20;;;;;;;-2.65;67.63;100038.91;4888857;29;20045;-90
2022/12/15 04:22:59;;;;;;;15.07;7.78;;;;;;;-3.18;67.40;99953.41;4890126;29;20544;-93
2022/12/15 05:32:03;;;;;;;24.05;10.82;;;;;;;-3.62;66.15;100034.16;4917545;29;20087;-92
2022/12/15 05:34:32;;;;;;;25.75;11.27;;;;;;;-3.15;65.87;100108.06;4911733;29;20119;-92
2022/12/15 05:37:01;;;;;;;24.15;10.63;;;;;;;-3.68;66.19;100029.63;4924640;29;20091;-93
2022/12/15 05:39:31;;;;;;;23.98;10.80;;;;;;;-3.71;66.34;100062.91;4912532;29;20035;-93
2022/12/15 05:41:57;;;;;;;23.85;11.23;;;;;;;-3.44;66.32;100095.06;4918455;29;20040;-91
2022/12/15 05:44:25;;;;;;;23.02;10.27;;;;;;;-3.42;66.15;100106.38;4901949;29;20068;-91
2022/12/15 05:46:51;;;;;;;;;;;;;;;-3.38;66.34;100119.16;4873161;29;20179;-91
2022/12/15 05:49:17;;;;;;;23.08;10.70;;;;;;;-3.72;66.26;100085.31;4904973;29;19982;-92
2022/12/15 05:51:46;;;;;;;20.88;9.90;;;;;;;-3.61;66.09;100105.28;4895581;29;20027;-91
2022/12/15 05:54:15;;;;;;;20.75;10.18;;;;;;;-3.75;66.08;100095.59;4907364;29;20055;-90
2022/12/15 05:56:42;;;;;;;23.65;10.77;;;;;;;-3.89;66.70;100103.53;4907547;29;20043;-94
2022/12/15 05:59:08;;;;;;;26.50;11.82;;;;;;;-3.78;66.70;100136.88;4909900;29;20035;-91
2022/12/15 06:01:34;;;;;;;22.73;9.10;;;;;;;-3.75;67.11;100155.19;4906115;29;20048;-91
2022/12/15 06:04:01;;;;;;;26.80;11.70;;;;;;;-4.03;67.95;100093.84;4874786;29;20139;-92
2022/12/15 06:06:29;;;;;;;24.63;10.88;;;;;;;-3.76;68.40;100148.19;4891387;29;20049;-93
2022/12/15 06:08:55;;;;;;;24.00;10.38;;;;;;;-3.78;68.35;100136.88;4874198;29;20540;-95
2022/12/15 06:11:21;;;;;;;22.45;10.57;;;;;;;-4.34;68.73;100054.25;4892982;29;20045;-93
2022/12/15 06:13:48;;;;;;;23.48;11.23;;;;;;;-4.32;69.35;100082.38;4911842;29;20051;-93
2022/12/15 06:16:20;;;;;;;21.77;10.90;;;;;;;-3.91;70.88;100150.97;4910448;29;20039;-94
2022/12/15 06:18:53;;;;;;;27.83;11.77;;;;;;;-3.98;70.63;100157.31;4903642;29;20113;-94
2022/12/15 06:21:23;;;;;;;20.63;9.55;;;;;;;-4.27;70.81;100122.69;4879470;29;20045;-94
2022/12/15 06:23:51;;;;;;;21.25;10.13;;;;;;;-4.70;71.35;100097.13;4893403;29;20045;-93
2022/12/15 06:26:24;;;;;;;23.77;8.30;;;;;;;-4.25;71.69;100175.84;4890829;29;20526;-94
2022/12/15 06:28:51;;;;;;;15.27;7.50;;;;;;;-4.47;71.92;100163.56;4880015;29;20388;-93
2022/12/15 06:31:21;;;;;;;18.63;8.80;;;;;;;-4.50;72.20;100162.97;4896755;29;20039;-94
2022/12/15 06:33:50;;;;;;;20.70;8.70;;;;;;;-4.62;72.46;100107.66;4909419;29;20054;-93
2022/12/15 06:36:18;;;;;;;20.58;10.15;;;;;;;-4.39;71.99;100142.09;4864574;29;20044;-92
2022/12/15 06:38:46;;;;;;;24.95;10.38;;;;;;;-4.48;72.12;100136.06;4893671;29;20044;-94
2022/12/15 06:41:16;;;;;;;16.38;7.07;;;;;;;-4.14;71.58;100186.00;4909101;29;20147;-95
2022/12/15 06:43:56;;;;;;;22.80;9.95;;;;;;;-4.36;71.58;100152.38;4894250;29;20043;-95
2022/12/15 06:46:23;;;;;;;17.65;8.88;;;;;;;-4.11;71.48;100206.94;4891496;29;20040;-94
2022/12/15 06:48:49;;;;;;;18.23;8.85;;;;;;;-4.38;71.25;100178.44;4910863;29;20040;-94
2022/12/15 06:51:24;;;;;;;20.42;9.20;;;;;;;-4.41;71.47;100168.97;4904352;29;20065;-91
2022/12/15 06:53:54;;;;;;;22.15;10.38;;;;;;;-4.43;71.36;100124.84;4886246;29;20041;-93
2022/12/15 06:56:23;;;;;;;23.67;9.82;;;;;;;-4.28;70.71;100136.19;4888060;29;20052;-91
2022/12/15 06:58:51;;;;;;;20.70;9.05;;;;;;;-4.53;70.54;100096.66;4886699;29;20036;-92
2022/12/15 07:01:21;;;;;;;23.92;10.95;;;;;;;-3.98;70.84;100192.88;4915735;29;20057;-93
2022/12/15 07:03:53;;;;;;;26.60;10.07;;;;;;;-4.21;70.22;100142.41;4899394;29;20048;-96
2022/12/15 07:06:20;;;;;;;18.58;8.63;;;;;;;-3.81;70.61;100212.06;4892484;29;20036;-94
2022/12/15 07:08:51;;;;;;;18.60;9.32;;;;;;;-3.65;70.03;100211.75;4892161;29;20037;-94
2022/12/15 07:11:19;;;;;;;20.92;8.63;;;;;;;-3.75;69.51;100154.34;4876766;29;20040;-93
2022/12/15 07:13:53;;;;;;;17.30;8.50;;;;;;;-3.39;69.28;100191.50;4889618;29;20045;-94
2022/12/15 07:16:23;;;;;;;17.90;8.63;;;;;;;-3.71;68.47;100137.72;4891156;29;20147;-95
2022/12/15 07:18:51;;;;;;;16.35;8.85;;;;;;;-3.16;68.27;100212.56;4874296;29;20041;-94
2022/12/15 07:21:17;;;;;;;17.73;8.73;;;;;;;-3.68;68.02;100136.50;4874849;29;20051;-95
2022/12/15 07:23:44;;;;;;;15.75;7.65;;;;;;;-3.45;68.15;100194.97;4893024;29;20430;-95
2022/12/15 07:26:14;;;;;;;13.87;7.00;;;;;;;-4.07;68.52;100104.09;4898263;29;20048;-94
2022/12/15 07:28:40;;;;;;;15.43;7.45;;;;;;;-3.79;68.17;100135.22;4881165;29;20057;-95
2022/12/15 07:31:12;;;;;;;20.80;9.00;;;;;;;-3.99;68.45;100107.63;4882189;29;20511;-95
2022/12/15 07:33:41;;;;;;;17.35;8.27;;;;;;;-3.68;68.82;100176.56;4881757;29;20501;-94
2022/12/15 07:36:09;;;;;;;18.23;7.47;;;;;;;-3.98;68.67;100144.78;4867751;29;20306;-95
2022/12/15 07:38:37;;;;;;;15.57;7.65;;;;;;;-4.05;68.75;100127.91;4897368;29;20044;-93
2022/12/15 07:41:06;;;;;;;14.25;7.65;;;;;;;-3.42;69.08;100223.97;4895922;29;20021;-95
2022/12/15 07:43:34;;;;;;;17.02;9.45;;;;;;;-3.84;69.09;100157.22;4885076;29;20123;-95
2022/12/15 07:46:01;;;;;;;19.63;7.47;;;;;;;-3.51;68.90;100187.75;4892834;29;20040;-94
2022/12/15 07:48:28;;;;;;;19.45;7.70;;;;;;;-3.99;68.61;100118.28;4886657;29;20040;-96
2022/12/15 07:50:56;;;;;;;16.50;6.97;;;;;;;-3.98;68.25;100115.41;4915205;29;20481;-94
2022/12/15 07:53:26;;;;;;;18.90;9.52;;;;;;;-3.65;68.49;100154.81;4904235;29;20056;-94
2022/12/15 07:55:57;;;;;;;17.77;9.02;;;;;;;-3.02;68.11;100227.63;4900916;29;20517;-94
2022/12/15 07:58:26;;;;;;;16.63;6.82;;;;;;;-3.43;67.88;100156.34;4920766;29;20071;-92
2022/12/15 08:01:01;;;;;;;15.80;7.32;;;;;;;-3.08;68.04;100233.75;4935563;29;20036;-93
2022/12/15 08:03:36;;;;;;;17.58;8.95;;;;;;;-2.96;68.10;100204.59;4932447;29;20079;-94
2022/12/15 08:06:29;;;;;;;18.00;7.82;;;;;;;-3.46;67.43;100097.09;4896898;29;20073;-95
2022/12/15 08:08:58;;;;;;;19.27;8.32;;;;;;;-2.66;66.80;100219.25;4895505;29;20052;-94
2022/12/15 08:11:27;;;;;;;17.90;8.18;;;;;;;-2.90;66.07;100166.31;4897192;29;20044;-93
2022/12/15 08:14:00;;;;;;;14.90;7.88;;;;;;;-3.41;66.16;100083.94;4885992;29;20073;-95
2022/12/15 08:16:33;;;;;;;15.32;7.30;;;;;;;-2.97;66.05;100174.34;4900176;29;20029;-95
2022/12/15 08:18:59;;;;;;;19.85;9.18;;;;;;;-3.22;66.14;100131.28;4879440;29;20044;-94
2022/12/15 08:21:27;;;;;;;22.35;9.45;;;;;;;-3.13;66.15;100129.25;4907093;29;20052;-95
2022/12/15 08:23:53;;;;;;;20.85;9.57;;;;;;;-2.37;66.02;100223.38;4901211;29;20055;-94
2022/12/15 08:26:23;;;;;;;20.30;9.52;;;;;;;-2.62;65.38;100180.34;4913775;29;20052;-93
2022/12/15 08:28:49;;;;;;;20.83;9.23;;;;;;;-2.86;65.40;100143.47;4882551;29;20053;-94
2022/12/15 08:31:18;;;;;;;20.98;9.30;;;;;;;-2.49;65.32;100197.44;4927220;29;20047;-94
2022/12/15 08:33:59;;;;;;;17.02;8.48;;;;;;;-3.17;64.78;100094.06;4918901;29;20047;-96
2022/12/15 08:36:44;;;;;;;19.73;8.30;;;;;;;-2.80;64.84;100177.44;4937555;29;20043;-95
2022/12/15 08:39:17;;;;;;;18.42;8.80;;;;;;;-2.70;65.17;100172.50;4885962;29;20089;-95
2022/12/15 08:41:52;;;;;;;17.95;9.15;;;;;;;-2.38;64.96;100220.94;4854802;29;20061;-93
2022/12/15 08:44:25;;;;;;;16.30;8.27;;;;;;;-3.08;64.64;100106.22;4886754;29;20124;-94
2022/12/15 08:47:02;;;;;;;13.05;6.82;;;;;;;-2.90;64.67;100191.22;4854475;29;20053;-93
2022/12/15 08:49:29;;;;;;;19.35;8.32;;;;;;;-2.56;65.01;100220.69;4895790;29;20047;-93
2022/12/15 08:52:00;;;;;;;18.10;8.50;;;;;;;-3.18;64.99;100142.41;4917407;29;20046;-93
2022/12/15 08:54:28;;;;;;;22.77;9.50;;;;;;;-3.04;64.82;100143.28;4903919;29;20052;-94
2022/12/15 08:56:57;;;;;;;29.20;9.77;;;;;;;-3.18;64.62;100116.50;4936963;29;20111;-93
2022/12/15 08:59:24;;;;;;;19.42;9.18;;;;;;;-2.96;64.13;100109.09;4903116;29;20079;-94
2022/12/15 09:01:57;;;;;;;20.80;9.68;;;;;;;-2.64;63.78;100154.81;4893177;29;20016;-93
2022/12/15 09:04:49;;;;;;;19.30;9.63;;;;;;;-2.60;63.63;100146.16;4923859;23;20063;-94
2022/12/15 09:07:19;;;;;;;23.45;9.93;;;;;;;-2.81;63.17;100108.91;4872240;29;20049;-94
2022/12/15 09:10:32;;;;;;;21.80;10.18;;;;;;;-2.19;62.82;100189.78;4888275;29;20065;-95
2022/12/15 09:13:22;;;;;;;24.88;11.70;;;;;;;-2.19;62.82;100176.41;4880280;29;20116;-95
2022/12/15 09:16:07;;;;;;;18.73;8.68;;;;;;;-2.35;61.89;100177.69;4882744;29;20044;-94
2022/12/15 09:18:36;;;;;;;22.87;10.33;;;;;;;-2.51;62.77;100159.34;4883720;29;20128;-94
2022/12/15 09:21:07;;;;;;;24.73;10.65;;;;;;;-2.88;63.16;100116.94;4860146;29;20045;-96
2022/12/15 09:23:34;;;;;;;23.95;11.13;;;;;;;-2.98;63.88;100142.44;4844441;29;20064;-95
2022/12/15 09:26:21;;;;;;;20.00;9.43;;;;;;;-2.93;63.93;100135.44;4860311;29;20045;-96
2022/12/15 09:28:49;;;;;;;20.80;9.82;;;;;;;-2.78;63.42;100145.13;4846014;29;20048;-94
2022/12/15 09:31:22;;;;;;;25.95;11.15;;;;;;;-3.18;63.60;100095.13;4896310;29;20068;-94
2022/12/15 09:34:17;;;;;;;18.42;9.63;;;;;;;-3.21;63.60;100084.81;4849272;29;20080;-94
2022/12/15 09:36:46;;;;;;;19.25;9.43;;;;;;;-3.07;63.47;100105.19;4830900;29;20050;-93
2022/12/15 09:39:15;;;;;;;20.40;10.23;;;;;;;-3.20;63.81;100109.72;4812852;29;20074;-93
2022/12/15 09:41:51;;;;;;;17.48;9.35;;;;;;;-3.33;64.02;100108.66;4819733;29;20145;-94
2022/12/15 09:44:20;;;;;;;25.10;10.88;;;;;;;-3.10;63.71;100112.81;4825325;29;20569;-95
2022/12/15 09:47:10;;;;;;;25.45;10.82;;;;;;;-2.73;63.73;100178.28;4840041;29;20054;-94
2022/12/15 09:49:56;;;;;;;19.05;9.88;;;;;;;-3.13;63.65;100106.00;4786465;30;20043;-93
2022/12/15 09:52:34;;;;;;;20.85;10.75;;;;;;;-3.29;63.77;100054.78;4770645;30;20110;-95
2022/12/15 09:55:31;;;;;;;19.08;8.95;;;;;;;-2.72;63.22;100137.09;4770500;30;20059;-95
2022/12/15 09:58:35;;;;;;;20.60;9.27;;;;;;;-3.12;63.29;100067.53;4770827;30;20133;-95
2022/12/15 10:01:28;;;;;;;19.70;9.55;;;;;;;-2.32;62.67;100155.81;4757676;30;20106;-94
2022/12/15 10:04:44;;;;;;;22.65;10.15;;;;;;;-2.00;61.95;100150.63;4717210;30;20138;-95
2022/12/15 10:07:24;;;;;;;30.83;12.30;;;;;;;-2.68;61.22;100028.63;4690711;30;20057;-96
2022/12/15 10:09:53;;;;;;;28.63;11.98;;;;;;;-2.48;60.68;100023.22;4705684;30;20104;-95
2022/12/15 10:12:48;;;;;;;26.33;12.95;;;;;;;-2.16;60.41;100061.63;4732375;30;20056;-94
2022/12/15 10:15:44;;;;;;;34.22;14.65;;;;;;;-2.17;60.23;100032.38;4688231;30;20125;-94
2022/12/15 10:18:16;;;;;;;22.17;10.98;;;;;;;-1.59;59.89;100122.63;4701527;30;20083;-94
2022/12/15 10:20:44;;;;;;;20.20;9.88;;;;;;;-1.89;59.84;100050.81;4737450;30;20040;-95
2022/12/15 10:23:15;;;;;;;21.95;11.50;;;;;;;-2.18;59.70;99995.94;4755377;30;20052;-96
2022/12/15 10:26:00;;;;;;;26.42;10.95;;;;;;;-1.80;59.74;100046.03;4755166;30;20058;-94
2022/12/15 10:28:49;;;;;;;25.08;11.18;;;;;;;-1.96;59.44;100004.47;4741648;30;20060;-93
2022/12/15 10:31:53;;;;;;;22.42;10.63;;;;;;;-1.80;59.40;100003.97;4754097;30;20343;-94
2022/12/15 10:34:33;;;;;;;31.65;10.60;;;;;;;-1.37;58.90;100048.03;4690368;30;20067;-96
2022/12/15 10:37:02;;;;;;;20.88;10.50;;;;;;;-1.25;58.85;100073.97;4717417;30;20064;-92
2022/12/15 10:39:42;;;;;;;30.33;10.88;;;;;;;-1.81;58.83;100006.88;4705999;30;20045;-94
2022/12/15 10:42:24;;;;;;;20.92;9.85;;;;;;;-1.74;59.02;100039.81;4719765;30;20052;-95
2022/12/15 10:45:24;;;;;;;27.00;11.52;;;;;;;-1.39;59.12;100075.09;4733972;30;20052;-95
2022/12/15 10:47:58;;;;;;;21.45;10.88;;;;;;;-1.59;58.99;100029.63;4733302;30;20090;-96
2022/12/15 10:50:26;;;;;;;21.13;10.75;;;;;;;-1.57;59.16;100050.84;4728714;30;20085;-95
2022/12/15 10:52:57;;;;;;;21.90;10.43;;;;;;;-1.50;59.07;100054.31;4750737;30;20044;-95
2022/12/15 10:55:46;;;;;;;19.13;9.77;;;;;;;-1.61;58.79;100058.50;4754766;30;20056;-95
2022/12/15 10:58:21;;;;;;;23.00;10.60;;;;;;;-1.83;59.19;100022.34;4761057;30;20055;-95
2022/12/15 11:01:06;;;;;;;22.50;11.20;;;;;;;-1.10;58.62;100132.66;4751776;30;20057;-96
2022/12/15 11:03:36;;;;;;;31.60;12.15;;;;;;;-1.34;58.96;100144.16;4742203;30;20056;-93
2022/12/15 11:06:30;;;;;;;21.45;10.88;;;;;;;-1.81;59.79;100109.53;4755292;30;20032;-94
2022/12/15 11:09:23;;;;;;;20.05;9.77;;;;;;;-1.88;60.03;100134.72;4751257;29;20455;-94
2022/12/15 11:14:46;;;;;;;24.58;11.90;;;;;;;-1.64;59.58;100150.09;4810024;29;20046;-91
2022/12/15 11:17:18;;;;;;;40.83;12.95;;;;;;;-1.93;59.55;100079.88;4843212;29;20046;-95
2022/12/15 11:20:21;;;;;;;29.50;11.57;;;;;;;-1.41;59.08;100165.66;4818169;29;20043;-94
2022/12/15 11:23:03;;;;;;;22.95;11.88;;;;;;;-1.83;59.28;100108.91;4771281;30;20048;-94
2022/12/15 11:25:43;;;;;;;27.33;12.45;;;;;;;-2.02;58.92;100083.84;4756322;30;20048;-93
2022/12/15 11:28:17;;;;;;;22.38;10.55;;;;;;;-1.59;58.92;100163.69;4729552;30;20061;-94
2022/12/15 11:30:56;;;;;;;27.95;11.48;;;;;;;-1.80;59.49;100151.38;4743841;30;20084;-94
2022/12/15 11:33:26;;;;;;;24.50;10.32;;;;;;;-2.25;59.25;100062.91;4732393;30;20057;-93
2022/12/15 11:36:40;;;;;;;20.77;10.07;;;;;;;-2.09;60.11;100125.06;4720713;30;20158;-94
2022/12/15 11:39:51;;;;;;;21.83;9.90;;;;;;;-2.56;59.87;100062.78;4734545;30;20148;-96
2022/12/15 11:42:47;;;;;;;21.52;10.15;;;;;;;-1.81;59.87;100159.63;4723624;30;20049;-95
2022/12/15 11:45:25;;;;;;;18.67;9.48;;;;;;;-2.19;59.87;100077.31;4714850;30;20135;-95
2022/12/15 11:47:58;;;;;;;23.88;9.80;;;;;;;-2.19;59.89;100093.38;4713873;30;20048;-95
2022/12/15 11:50:48;;;;;;;30.27;11.00;;;;;;;-1.84;59.86;100139.44;4730225;30;20056;-94
2022/12/15 11:53:44;;;;;;;22.27;10.07;;;;;;;-2.01;60.35;100130.22;4729042;30;20053;-94
2022/12/15 11:56:22;;;;;;;26.30;11.13;;;;;;;-1.88;60.55;100137.41;4702736;30;20061;-94
2022/12/15 11:59:14;;;;;;;25.45;10.93;;;;;;;-1.96;60.20;100133.06;4768456;29;20043;-93
2022/12/15 12:02:24;;;;;;;29.15;10.80;;;;;;;-1.97;60.51;100140.28;4830117;29;20085;-92
2022/12/15 12:05:35;;;;;;;25.05;10.93;;;;;;;-2.57;60.40;100042.41;4818662;29;20053;-92
2022/12/15 12:08:31;;;;;;;26.58;11.52;;;;;;;-2.50;60.96;100072.66;4831820;29;20064;-93
2022/12/15 12:11:22;;;;;;;25.85;11.35;;;;;;;-1.97;60.94;100115.38;4817916;29;20050;-92
2022/12/15 12:14:11;;;;;;;31.83;11.80;;;;;;;-2.38;60.81;100069.13;4839151;29;20064;-91
2022/12/15 12:17:09;;;;;;;36.90;13.07;;;;;;;-1.96;61.29;100123.19;4848310;29;20051;-92
2022/12/15 12:19:48;;;;;;;44.72;16.10;;;;;;;-1.89;60.92;100109.75;4819812;29;20066;-96
2022/12/15 12:22:33;;;;;;;32.50;12.52;;;;;;;-2.01;60.43;100116.81;4819933;29;20045;-95
2022/12/15 12:25:02;;;;;;;30.77;12.40;;;;;;;-2.10;60.96;100116.22;4820169;29;20046;-94
2022/12/15 12:27:38;;;;;;;25.40;10.45;;;;;;;-2.02;61.12;100107.13;4820236;29;20126;-92
2022/12/15 12:30:16;;;;;;;26.48;11.20;;;;;;;-2.22;61.29;100077.72;4859585;29;20049;-93
2022/12/15 12:33:01;;;;;;;25.52;10.60;;;;;;;-2.32;61.13;100059.41;4837948;29;20038;-90
2022/12/15 12:35:41;;;;;;;31.77;12.20;;;;;;;-2.16;61.49;100098.31;4838152;29;20758;-93
2022/12/15 12:38:11;;;;;;;23.23;10.13;;;;;;;-2.39;61.63;100077.34;4850914;29;20046;-94
2022/12/15 12:40:52;;;;;;;26.10;11.10;;;;;;;-2.52;61.47;100021.97;4828202;29;20069;-93
2022/12/15 12:43:35;;;;;;;28.27;11.30;;;;;;;-2.13;61.66;100079.97;4838699;29;20153;-94
2022/12/15 12:46:21;;;;;;;26.13;11.57;;;;;;;-2.29;61.76;100084.94;4892995;29;20064;-95
2022/12/15 12:49:11;;;;;;;23.77;9.88;;;;;;;-2.35;61.50;100051.81;4890329;29;20053;-94
2022/12/15 12:51:41;;;;;;;26.40;10.77;;;;;;;-2.32;61.59;100078.16;4885291;29;20076;-94
2022/12/15 12:54:35;;;;;;;29.35;11.52;;;;;;;-2.39;62.04;100075.50;4858182;29;20105;-92
2022/12/15 12:57:41;;;;;;;22.25;10.50;;;;;;;-2.79;62.88;100055.19;4854320;29;20048;-95
2022/12/15 13:00:07;;;;;;;18.95;8.70;;;;;;;-2.65;62.19;100041.59;4902521;29;20052;-92
2022/12/15 13:02:39;;;;;;;25.75;10.77;;;;;;;-2.64;62.50;100043.22;4907187;29;20581;-93
2022/12/15 13:05:30;;;;;;;22.63;10.45;;;;;;;-2.87;62.43;99995.50;4907516;29;20056;-94
2022/12/15 13:08:25;;;;;;;26.98;12.00;;;;;;;-3.01;63.11;99993.06;4897863;29;20040;-91
2022/12/15 13:10:55;;;;;;;24.50;11.27;;;;;;;-2.93;62.89;99995.53;4917305;29;20040;-92
2022/12/15 13:13:31;;;;;;;28.50;12.38;;;;;;;-2.66;62.66;100031.09;4924180;29;20044;-92
2022/12/15 13:16:25;;;;;;;25.83;11.95;;;;;;;-3.04;62.56;99978.25;4909392;29;20052;-93
2022/12/15 13:18:58;;;;;;;26.42;11.10;;;;;;;-2.92;62.45;100002.50;4838123;29;20060;-92
2022/12/15 13:21:56;;;;;;;24.40;11.30;;;;;;;-2.92;62.87;100011.34;4829741;29;20105;-93
2022/12/15 13:24:40;;;;;;;23.95;11.18;;;;;;;-2.82;62.19;100002.91;4812881;29;20047;-91
2022/12/15 13:27:13;;;;;;;23.80;10.32;;;;;;;-2.70;61.78;100017.31;4799236;29;20522;-92
2022/12/15 13:30:06;;;;;;;27.00;10.95;;;;;;;-2.63;61.84;100009.25;4818279;29;20043;-93
2022/12/15 13:32:36;;;;;;;22.48;10.35;;;;;;;-2.84;61.46;99979.06;4804316;29;20121;-93
2022/12/15 13:35:12;;;;;;;19.33;9.77;;;;;;;-2.84;61.54;100005.81;4819808;29;20122;-91
2022/12/15 13:37:41;;;;;;;19.30;9.32;;;;;;;-2.95;61.89;100003.75;4815699;29;20061;-91
2022/12/15 13:40:33;;;;;;;16.02;7.95;;;;;;;-2.93;61.61;99991.00;4814004;29;20050;-91
2022/12/15 13:43:03;;;;;;;21.98;9.18;;;;;;;-3.08;61.77;99982.34;4784985;29;20077;-95
2022/12/15 13:45:51;;;;;;;20.92;9.75;;;;;;;-3.40;61.86;99936.75;4786370;30;20051;-94
2022/12/15 13:48:38;;;;;;;22.63;9.63;;;;;;;-3.24;62.00;99958.75;4799474;30;20073;-93
2022/12/15 13:51:25;;;;;;;21.73;8.63;;;;;;;-3.11;62.33;99975.59;4802126;29;20394;-90
2022/12/15 13:54:10;;;;;;;26.90;9.13;;;;;;;-3.48;62.20;99922.75;4791133;29;20066;-92
2022/12/15 13:56:45;;;;;;;28.30;11.00;;;;;;;-3.41;62.41;99904.84;4815202;29;20465;-90
2022/12/15 13:59:44;;;;;;;28.03;10.50;;;;;;;-3.26;61.51;99934.88;4851571;29;20080;-91
2022/12/15 14:02:30;;;;;;;23.85;9.82;;;;;;;-3.46;61.14;99910.84;4886776;29;20045;-92
2022/12/15 14:05:24;;;;;;;25.27;9.00;;;;;;;-3.15;61.53;99957.47;4879808;29;20052;-94
2022/12/15 14:07:55;;;;;;;29.55;10.07;;;;;;;-3.35;61.84;99970.88;4890477;29;20120;-92
2022/12/15 14:10:29;;;;;;;25.30;9.98;;;;;;;-3.41;62.04;99956.50;4907418;29;20044;-94
2022/12/15 14:13:03;;;;;;;28.88;10.00;;;;;;;-3.55;62.19;99976.19;4904735;29;20523;-92
2022/12/15 14:15:31;;;;;;;24.95;9.98;;;;;;;-3.45;62.08;99963.25;4871406;29;20113;-92
2022/12/15 14:18:02;;;;;;;21.58;8.07;;;;;;;-3.74;61.77;99929.75;4890292;29;20120;-91